Adelphia, New Jersey
Current Conditions -  °F | °C
As of 7:55 PM on Tuesday 21 Oct 2014 (Local Time) from KBLM Reporting Station
Clear Clear  
Wind Chill: 55°   Ceiling: Unl
Heat Index: 55°   Visibility: 10mi
Dew Point: 48°   Wind: 0mph
Humidity: 77%   Direction: NA
Pressure: 29.85"   Gusts: NA
Location:  40.22°N, 74.26°W
Report Text: KBLM 212355Z AUTO 00000KT 10SM CLR 13/09 A2985 RMK AO1 60001 10170 20130 401900100 52010
Loading
Personal Weather Stations






























Interactive Weather Map
Tropical Storm Tracking
New forecast layout! Learn more

10-Day Weather Forecast

Advertisements
Track Severe Weather on mobile